createdAt,value
2022-08-03T00:02:15.665Z,99930.38
2022-08-03T00:04:42.925Z,99933.06
2022-08-03T00:07:10.036Z,99919.13
2022-08-03T00:09:37.135Z,99929.00
2022-08-03T00:12:04.607Z,99930.59
2022-08-03T00:14:31.723Z,99931.00
2022-08-03T00:16:58.981Z,99935.00
2022-08-03T00:19:26.093Z,99913.75
2022-08-03T00:21:53.148Z,99933.13
2022-08-03T00:24:20.436Z,99924.13
2022-08-03T00:26:47.570Z,99934.16
2022-08-03T00:29:14.706Z,99937.47
2022-08-03T00:31:52.912Z,99926.03
2022-08-03T00:34:36.542Z,99929.72
2022-08-03T00:37:13.846Z,99927.09
2022-08-03T00:39:41.087Z,99931.41
2022-08-03T00:42:08.197Z,99934.97
2022-08-03T00:44:43.629Z,99941.13
2022-08-03T00:47:11.813Z,99932.88
2022-08-03T00:49:39.958Z,99934.97
2022-08-03T00:52:11.888Z,99938.69
2022-08-03T00:54:39.608Z,99931.97
2022-08-03T00:57:07.433Z,99935.25
2022-08-03T00:59:34.850Z,99901.44
2022-08-03T01:02:02.460Z,99923.94
2022-08-03T01:04:29.533Z,99930.50
2022-08-03T01:07:17.500Z,99926.00
2022-08-03T01:10:01.502Z,99926.25
2022-08-03T01:12:44.135Z,99932.38
2022-08-03T01:15:29.645Z,99920.44
2022-08-03T01:18:03.784Z,99925.53
2022-08-03T01:20:38.398Z,99914.06
2022-08-03T01:23:16.428Z,99931.50
2022-08-03T01:26:09.882Z,99926.97
2022-08-03T01:29:01.599Z,99926.16
2022-08-03T01:32:58.042Z,99926.63
2022-08-03T01:34:36.862Z,99929.50
2022-08-03T01:37:08.038Z,99914.75
2022-08-03T01:39:38.254Z,99923.34
2022-08-03T01:42:07.936Z,99923.75
2022-08-03T01:44:41.175Z,99932.41
2022-08-03T01:47:12.566Z,99928.91
2022-08-03T01:49:43.598Z,99933.22
2022-08-03T01:52:12.110Z,99926.81
2022-08-03T01:54:44.480Z,99925.41
2022-08-03T01:57:13.566Z,99930.19
2022-08-03T01:59:42.239Z,99924.25
2022-08-03T02:02:32.052Z,99930.81
2022-08-03T02:05:03.464Z,99915.19
2022-08-03T02:07:33.129Z,99933.22
2022-08-03T02:10:02.933Z,99931.16
2022-08-03T02:12:32.716Z,99943.44
2022-08-03T02:15:20.623Z,99932.66
2022-08-03T02:17:49.577Z,99936.41
2022-08-03T02:20:18.359Z,99934.69
2022-08-03T02:22:47.595Z,99925.78
2022-08-03T02:25:16.270Z,99932.75
2022-08-03T02:28:05.180Z,99927.00
2022-08-03T02:30:39.331Z,99938.28
2022-08-03T02:33:12.538Z,99936.06
2022-08-03T02:35:40.683Z,99940.63
2022-08-03T02:38:10.267Z,99935.38
2022-08-03T02:40:40.313Z,99936.28
2022-08-03T02:43:16.380Z,99946.00
2022-08-03T02:45:45.888Z,99926.84
2022-08-03T02:48:18.290Z,99944.56
2022-08-03T02:50:46.491Z,99938.44
2022-08-03T02:53:15.690Z,99931.88
2022-08-03T02:55:47.577Z,99944.91
2022-08-03T02:58:17.617Z,99952.59
2022-08-03T03:00:45.521Z,99926.69
2022-08-03T03:03:13.923Z,99940.41
2022-08-03T03:05:55.165Z,99947.28
2022-08-03T03:08:28.350Z,99958.00
2022-08-03T03:11:01.334Z,99963.06
2022-08-03T03:13:32.530Z,99954.09
2022-08-03T03:16:04.954Z,99958.28
2022-08-03T03:18:34.259Z,99945.91
2022-08-03T03:21:04.646Z,99939.78
2022-08-03T03:23:32.079Z,99961.41
2022-08-03T03:26:02.429Z,99967.81
2022-08-03T03:28:31.632Z,99947.34
2022-08-03T03:30:59.988Z,99958.38
2022-08-03T03:33:28.493Z,99960.38
2022-08-03T03:35:56.207Z,99958.97
2022-08-03T03:38:23.492Z,99965.13
2022-08-03T03:40:50.586Z,99970.03
2022-08-03T03:43:18.800Z,99960.66
2022-08-03T03:45:47.628Z,99971.00
2022-08-03T03:48:14.942Z,99953.25
2022-08-03T03:50:43.640Z,99952.25
2022-08-03T03:53:12.078Z,99973.53
2022-08-03T03:56:01.181Z,99973.84
2022-08-03T03:58:27.490Z,99974.19
2022-08-03T04:00:54.726Z,99969.22
2022-08-03T04:03:21.830Z,99985.94
2022-08-03T04:06:07.529Z,99984.59
2022-08-03T04:08:53.134Z,99987.69
2022-08-03T04:11:41.806Z,99982.75
2022-08-03T04:14:19.366Z,99982.72
2022-08-03T04:16:56.044Z,99977.38
2022-08-03T04:19:30.626Z,99988.28
2022-08-03T04:22:02.680Z,99988.06
2022-08-03T04:24:38.770Z,99983.47
2022-08-03T04:27:09.394Z,99986.94
2022-08-03T04:29:48.251Z,99986.69
2022-08-03T04:32:18.309Z,99973.94
2022-08-03T04:34:45.992Z,99987.31
2022-08-03T04:37:23.143Z,99980.84
2022-08-03T04:39:51.671Z,99979.91
2022-08-03T04:42:21.819Z,99984.84
2022-08-03T04:44:48.985Z,99985.41
2022-08-03T04:47:16.588Z,99991.47
2022-08-03T04:49:44.213Z,100001.75
2022-08-03T04:52:11.889Z,99972.34
2022-08-03T04:54:48.752Z,99972.84
2022-08-03T04:57:22.904Z,99992.38
2022-08-03T05:00:02.168Z,99983.59
2022-08-03T05:02:33.663Z,99974.13
2022-08-03T05:05:00.833Z,99990.38
2022-08-03T05:07:35.824Z,99981.13
2022-08-03T05:10:14.795Z,99984.66
2022-08-03T05:12:44.504Z,99991.69
2022-08-03T05:15:12.074Z,99988.75
2022-08-03T05:17:39.159Z,99981.06
2022-08-03T05:20:06.672Z,99986.66
2022-08-03T05:22:33.918Z,99983.16
2022-08-03T05:25:02.330Z,99984.78
2022-08-03T05:27:30.596Z,99985.25
2022-08-03T05:30:30.670Z,99987.44
2022-08-03T05:32:44.826Z,99984.53
2022-08-03T05:35:55.881Z,99990.72
2022-08-03T05:37:59.062Z,99994.09
2022-08-03T05:40:26.812Z,99992.91
2022-08-03T05:42:57.543Z,99925.41
2022-08-03T05:45:28.433Z,99958.59
2022-08-03T05:47:56.012Z,99981.72
2022-08-03T05:50:23.722Z,99973.88
2022-08-03T05:52:50.983Z,99968.84
2022-08-03T05:55:19.052Z,99998.00
2022-08-03T05:57:47.043Z,100001.31
2022-08-03T06:00:16.625Z,99999.84
2022-08-03T06:02:43.802Z,99993.81
2022-08-03T06:05:11.028Z,100000.38
2022-08-03T06:07:38.307Z,99992.06
2022-08-03T06:10:37.242Z,99993.56
2022-08-03T06:12:53.600Z,99991.09
2022-08-03T06:15:21.078Z,99991.75
2022-08-03T06:17:50.114Z,99992.63
2022-08-03T06:20:19.735Z,99988.19
2022-08-03T06:22:51.183Z,99991.16
2022-08-03T06:25:27.154Z,99994.09
2022-08-03T06:27:54.249Z,99998.84
2022-08-03T06:30:21.654Z,99990.00
2022-08-03T06:32:51.741Z,99998.19
2022-08-03T06:35:20.130Z,99998.16
2022-08-03T06:37:51.805Z,99988.69
2022-08-03T06:40:29.220Z,100006.81
2022-08-03T06:42:57.699Z,99990.78
2022-08-03T06:45:25.103Z,100002.97
2022-08-03T06:48:07.666Z,99997.72
2022-08-03T06:50:36.382Z,100000.53
2022-08-03T06:53:04.955Z,99996.81
2022-08-03T06:55:32.720Z,99992.75
2022-08-03T06:58:03.149Z,99992.06
2022-08-03T07:00:31.088Z,99983.06
2022-08-03T07:02:58.646Z,99979.78
2022-08-03T07:05:25.967Z,99986.88
2022-08-03T07:07:57.753Z,99997.38
2022-08-03T07:10:25.613Z,99992.38
2022-08-03T07:12:56.557Z,99993.25
2022-08-03T07:15:38.312Z,100002.41
2022-08-03T07:18:12.044Z,99989.94
2022-08-03T07:20:39.181Z,99984.00
2022-08-03T07:23:06.233Z,99980.66
2022-08-03T07:25:33.493Z,99985.72
2022-08-03T07:28:00.527Z,99978.34
2022-08-03T07:30:27.643Z,99992.47
2022-08-03T07:32:54.852Z,99990.94
2022-08-03T07:35:24.785Z,99984.94
2022-08-03T07:37:54.850Z,99999.25
2022-08-03T07:40:22.969Z,99994.66
2022-08-03T07:42:52.040Z,99989.91
2022-08-03T07:45:23.479Z,99996.56
2022-08-03T07:47:53.169Z,99991.09
2022-08-03T07:50:21.265Z,99978.50
2022-08-03T07:52:48.639Z,99990.31
2022-08-03T07:55:35.257Z,99994.94
2022-08-03T07:58:12.482Z,99998.94
2022-08-03T08:00:39.879Z,100002.19
2022-08-03T08:03:07.004Z,100005.00
2022-08-03T08:05:34.681Z,100001.63
2022-08-03T08:08:02.683Z,100003.28
2022-08-03T08:10:30.031Z,100003.25
2022-08-03T08:12:57.559Z,99989.22
2022-08-03T08:15:25.246Z,100002.22
2022-08-03T08:17:54.901Z,99997.88
2022-08-03T08:20:28.129Z,100007.13
2022-08-03T08:23:37.029Z,100005.88
2022-08-03T08:25:56.269Z,100000.00
2022-08-03T08:28:31.373Z,100002.00
2022-08-03T08:31:01.385Z,100002.53
2022-08-03T08:33:42.170Z,100002.69
2022-08-03T08:36:15.771Z,100002.25
2022-08-03T08:38:45.105Z,99998.97
2022-08-03T08:41:13.959Z,100003.38
2022-08-03T08:43:42.165Z,100007.91
2022-08-03T08:46:23.615Z,100000.75
2022-08-03T08:48:53.711Z,99989.22
2022-08-03T08:51:22.445Z,100007.22
2022-08-03T08:53:53.975Z,100007.63
2022-08-03T08:56:25.532Z,100002.63
2022-08-03T08:58:56.936Z,99999.31
2022-08-03T09:01:24.095Z,100000.31
2022-08-03T09:03:53.486Z,100000.78
2022-08-03T09:06:21.872Z,99977.66
2022-08-03T09:08:49.177Z,100003.81
2022-08-03T09:11:16.400Z,100008.66
2022-08-03T09:13:43.510Z,99996.81
2022-08-03T09:16:11.505Z,100006.25
2022-08-03T09:18:39.229Z,99990.78
2022-08-03T09:21:37.292Z,100005.78
2022-08-03T09:24:08.626Z,100003.97
2022-08-03T09:26:40.772Z,100001.69
2022-08-03T09:29:14.433Z,100008.97
2022-08-03T09:31:46.240Z,100012.03
2022-08-03T09:34:15.697Z,100009.94
2022-08-03T09:36:50.586Z,100002.06
2022-08-03T09:39:37.544Z,100008.03
2022-08-03T09:42:14.811Z,99999.06
2022-08-03T09:44:47.953Z,100013.47
2022-08-03T09:47:28.364Z,100001.19
2022-08-03T09:50:01.842Z,100010.38
2022-08-03T09:52:49.231Z,99969.78
2022-08-03T09:56:21.147Z,100006.69
2022-08-03T09:58:09.614Z,100001.81
2022-08-03T10:01:06.013Z,100001.78
2022-08-03T10:03:36.347Z,100003.16
2022-08-03T10:06:28.865Z,100001.81
2022-08-03T10:09:16.578Z,99996.63
2022-08-03T10:11:46.914Z,100006.13
2022-08-03T10:14:20.152Z,100003.44
2022-08-03T10:16:48.486Z,100009.97
2022-08-03T10:19:16.623Z,100003.69
2022-08-03T10:22:01.477Z,100007.75
2022-08-03T10:24:30.839Z,100008.31
2022-08-03T10:27:07.190Z,100009.94
2022-08-03T10:29:48.937Z,100010.19
2022-08-03T10:32:28.006Z,100005.06
2022-08-03T10:35:12.400Z,100005.84
2022-08-03T10:38:08.355Z,100005.88
2022-08-03T10:40:58.642Z,100005.06
2022-08-03T10:43:37.258Z,99999.63
2022-08-03T10:46:07.398Z,99989.59
2022-08-03T10:48:36.853Z,99999.91
2022-08-03T10:51:04.968Z,100001.25
2022-08-03T10:53:40.526Z,100016.44
2022-08-03T10:56:57.741Z,100002.88
2022-08-03T10:59:47.140Z,100008.31
2022-08-03T11:02:15.652Z,100014.25
2022-08-03T11:04:44.876Z,100018.06
2022-08-03T11:07:22.819Z,100018.06
2022-08-03T11:09:55.957Z,100018.09
2022-08-03T11:12:32.949Z,100004.50
2022-08-03T11:15:07.266Z,100008.81
2022-08-03T11:17:45.872Z,100015.88
2022-08-03T11:20:14.320Z,100006.06
2022-08-03T11:22:51.726Z,100018.50
2022-08-03T11:25:53.686Z,100013.09
2022-08-03T11:28:28.731Z,100020.22
2022-08-03T11:30:56.115Z,100013.19
2022-08-03T11:33:31.322Z,100019.72
2022-08-03T11:36:00.832Z,100016.97
2022-08-03T11:38:28.147Z,100015.06
2022-08-03T11:40:55.531Z,100012.09
2022-08-03T11:43:22.840Z,100018.06
2022-08-03T11:46:29.589Z,100012.09
2022-08-03T11:49:10.230Z,100008.56
2022-08-03T11:51:40.363Z,100003.97
2022-08-03T11:54:08.172Z,99992.84
2022-08-03T11:56:47.182Z,100002.06
2022-08-03T11:59:20.452Z,100009.94
2022-08-03T12:01:48.613Z,100011.53
2022-08-03T12:04:16.567Z,99986.00
2022-08-03T12:07:01.587Z,99997.38
2022-08-03T12:09:28.772Z,100005.47
2022-08-03T12:12:00.406Z,99997.84
2022-08-03T12:14:48.292Z,99998.66
2022-08-03T12:17:18.862Z,100012.50
2022-08-03T12:19:46.592Z,100000.63
2022-08-03T12:22:16.093Z,100005.59
2022-08-03T12:24:46.818Z,100000.69
2022-08-03T12:27:25.282Z,99999.66
2022-08-03T12:29:58.270Z,99999.09
2022-08-03T12:32:30.285Z,99998.00
2022-08-03T12:35:01.515Z,100000.19
2022-08-03T12:37:32.165Z,100006.41
2022-08-03T12:40:09.467Z,100002.88
2022-08-03T12:42:39.637Z,100008.31
2022-08-03T12:45:27.374Z,100009.13
2022-08-03T12:48:00.467Z,100002.88
2022-08-03T12:50:31.763Z,100008.28
2022-08-03T12:53:01.144Z,100003.41
2022-08-03T12:55:57.141Z,100002.31
2022-08-03T12:58:35.394Z,100006.13
2022-08-03T13:01:10.061Z,100013.69
2022-08-03T13:03:49.619Z,100012.06
2022-08-03T13:06:26.596Z,100000.69
2022-08-03T13:09:05.814Z,100009.34
2022-08-03T13:11:57.341Z,100020.75
2022-08-03T13:14:21.299Z,99999.06
2022-08-03T13:16:49.394Z,100008.84
2022-08-03T13:19:16.924Z,100011.56
2022-08-03T13:22:01.384Z,100012.09
2022-08-03T13:24:33.524Z,100014.53
2022-08-03T13:28:01.838Z,100010.19
2022-08-03T13:29:50.158Z,100002.31
2022-08-03T13:32:17.397Z,99980.56
2022-08-03T13:34:44.522Z,100008.81
2022-08-03T13:37:12.273Z,99994.94
2022-08-03T13:39:57.914Z,99995.22
2022-08-03T13:42:31.771Z,99995.25
2022-08-03T13:45:00.165Z,100003.38
2022-08-03T13:47:28.061Z,100003.69
2022-08-03T13:50:01.730Z,99992.22
2022-08-03T13:52:33.617Z,100010.91
2022-08-03T13:55:01.729Z,100007.97
2022-08-03T13:58:04.544Z,100004.97
2022-08-03T14:00:27.297Z,100001.69
2022-08-03T14:03:04.047Z,99999.53
2022-08-03T14:05:32.891Z,100002.88
2022-08-03T14:08:05.791Z,99995.28
2022-08-03T14:10:34.635Z,99997.97
2022-08-03T14:13:01.794Z,100005.53
2022-08-03T14:15:29.140Z,99994.72
2022-08-03T14:18:16.133Z,99999.34
2022-08-03T14:20:56.458Z,100002.88
2022-08-03T14:23:24.458Z,99992.53
2022-08-03T14:25:52.923Z,100003.69
2022-08-03T14:28:25.005Z,100003.97
2022-08-03T14:30:52.907Z,100005.59
2022-08-03T14:33:20.672Z,99987.66
2022-08-03T14:35:49.321Z,100006.94
2022-08-03T14:38:16.868Z,100005.06
2022-08-03T14:40:44.238Z,100008.84
2022-08-03T14:43:11.534Z,99988.78
2022-08-03T14:45:39.715Z,99997.97
2022-08-03T14:50:28.751Z,100007.75
2022-08-03T14:50:55.449Z,99995.84
2022-08-03T14:53:22.984Z,99993.13
2022-08-03T14:55:51.923Z,100011.56
2022-08-03T14:58:22.756Z,100009.38
2022-08-03T15:00:51.948Z,99972.75
2022-08-03T15:03:24.771Z,100005.84
2022-08-03T15:05:53.794Z,100013.16
2022-08-03T15:08:22.316Z,99991.47
2022-08-03T15:10:50.580Z,100005.56
2022-08-03T15:13:19.607Z,100001.00
2022-08-03T15:15:47.888Z,99992.28
2022-08-03T15:18:15.295Z,100001.22
2022-08-03T15:20:45.357Z,100000.16
2022-08-03T15:23:14.991Z,100009.34
2022-08-03T15:26:29.034Z,100007.69
2022-08-03T15:28:30.861Z,100013.91
2022-08-03T15:30:57.997Z,100013.97
2022-08-03T15:33:25.257Z,100020.75
2022-08-03T15:36:11.127Z,100011.50
2022-08-03T15:38:38.230Z,100016.16
2022-08-03T15:41:05.400Z,100020.75
2022-08-03T15:43:38.362Z,100020.69
2022-08-03T15:46:28.734Z,100024.47
2022-08-03T15:48:53.722Z,99999.22
2022-08-03T15:51:20.849Z,100023.34
2022-08-03T15:53:47.910Z,100023.91
2022-08-03T15:56:18.558Z,100026.34
2022-08-03T15:59:10.362Z,100016.84
2022-08-03T16:01:33.574Z,100015.25
2022-08-03T16:04:00.658Z,100008.56
2022-08-03T16:06:29.637Z,100006.97
2022-08-03T16:09:23.074Z,100009.13
2022-08-03T16:11:55.036Z,99990.56
2022-08-03T16:14:34.854Z,100009.25
2022-08-03T16:17:07.545Z,99996.13
2022-08-03T16:19:35.519Z,100004.28
2022-08-03T16:22:03.242Z,100008.53
2022-08-03T16:24:30.823Z,100015.56
2022-08-03T16:27:00.475Z,100008.59
2022-08-03T16:29:28.592Z,99993.09
2022-08-03T16:31:55.648Z,100010.16
2022-08-03T16:34:22.835Z,100007.97
2022-08-03T16:36:49.997Z,100013.34
2022-08-03T16:39:17.152Z,100009.22
2022-08-03T16:41:54.475Z,99997.22
2022-08-03T16:44:29.755Z,100024.28
2022-08-03T16:46:57.344Z,99997.13
2022-08-03T16:49:55.251Z,100004.91
2022-08-03T16:52:12.985Z,100026.06
2022-08-03T16:54:40.827Z,100011.41
2022-08-03T16:57:08.597Z,100032.53
2022-08-03T16:59:37.038Z,100028.75
2022-08-03T17:02:10.252Z,100034.44
2022-08-03T17:04:40.932Z,100033.13
2022-08-03T17:07:16.960Z,100033.44
2022-08-03T17:09:45.097Z,100041.78
2022-08-03T17:12:13.533Z,100024.31
2022-08-03T17:14:41.543Z,100050.41
2022-08-03T17:17:26.028Z,100050.44
2022-08-03T17:19:55.173Z,100052.88
2022-08-03T17:22:27.900Z,100054.44
2022-08-03T17:24:57.812Z,100050.91
2022-08-03T17:28:48.572Z,100060.91
2022-08-03T17:30:18.811Z,100069.56
2022-08-03T17:32:57.045Z,100053.47
2022-08-03T17:35:35.522Z,100058.25
2022-08-03T17:38:06.746Z,100072.38
2022-08-03T17:40:38.075Z,100075.09
2022-08-03T17:44:08.196Z,100083.97
2022-08-03T17:45:54.812Z,100076.09
2022-08-03T17:48:24.930Z,100077.13
2022-08-03T17:51:15.420Z,100072.75
2022-08-03T17:54:18.552Z,100075.06
2022-08-03T17:56:51.868Z,100085.59
2022-08-03T17:59:51.359Z,100086.72
2022-08-03T18:03:18.182Z,100083.66
2022-08-03T18:06:10.347Z,100095.59
2022-08-03T18:08:50.528Z,100081.41
2022-08-03T18:11:21.809Z,100084.44
2022-08-03T18:14:23.861Z,100089.50
2022-08-03T18:17:01.829Z,100106.06
2022-08-03T18:20:03.558Z,100095.63
2022-08-03T18:22:20.567Z,100115.47
2022-08-03T18:24:51.255Z,100110.69
2022-08-03T18:27:21.856Z,100081.22
2022-08-03T18:29:50.032Z,100135.81
2022-08-03T18:32:18.914Z,100111.00
2022-08-03T18:34:53.508Z,100129.97
2022-08-03T18:37:25.271Z,100132.09
2022-08-03T18:42:52.847Z,100115.63
2022-08-03T18:45:57.767Z,100137.88
2022-08-03T18:48:16.031Z,100137.22
2022-08-03T18:50:52.465Z,100145.03
2022-08-03T18:56:51.794Z,100147.91
2022-08-03T18:59:39.592Z,100156.00
2022-08-03T19:02:17.288Z,100144.00
2022-08-03T19:04:48.310Z,100162.38
2022-08-03T19:07:23.291Z,100159.03
2022-08-03T19:09:54.475Z,100163.94
2022-08-03T19:12:39.418Z,100151.81
2022-08-03T19:15:12.639Z,100167.06
2022-08-03T19:17:53.680Z,100160.31
2022-08-03T19:20:23.145Z,100173.75
2022-08-03T19:22:54.430Z,100157.88
2022-08-03T19:25:34.821Z,100175.22
2022-08-03T19:28:07.319Z,100163.63
2022-08-03T19:30:38.972Z,100171.94
2022-08-03T19:33:12.061Z,100155.41
2022-08-03T19:35:55.696Z,100167.91
2022-08-03T19:38:28.387Z,100167.84
2022-08-03T19:41:00.971Z,100162.44
2022-08-03T19:43:49.393Z,100168.19
2022-08-03T19:46:30.495Z,100168.81
2022-08-03T19:48:58.672Z,100162.75
2022-08-03T19:52:00.513Z,100157.34
2022-08-03T19:54:29.524Z,100159.97
2022-08-03T19:57:06.720Z,100155.72
2022-08-03T19:59:49.631Z,100137.38
2022-08-03T20:02:26.873Z,100164.88
2022-08-03T20:07:48.281Z,100149.75
2022-08-03T20:10:17.476Z,100153.19
2022-08-03T20:12:46.459Z,100162.78
2022-08-03T20:15:13.937Z,100163.72
2022-08-03T20:17:55.944Z,100168.22
2022-08-03T20:20:33.854Z,100163.81
2022-08-03T20:23:10.353Z,100169.00
2022-08-03T20:25:57.235Z,100158.84
2022-08-03T20:28:35.168Z,100183.53
2022-08-03T20:31:18.991Z,100173.69
2022-08-03T20:33:49.024Z,100149.97
2022-08-03T20:36:18.557Z,100179.88
2022-08-03T20:38:50.165Z,100181.00
2022-08-03T20:41:19.620Z,100164.41
2022-08-03T20:43:49.213Z,100185.13
2022-08-03T20:46:38.238Z,100196.94
2022-08-03T20:49:06.795Z,100196.81
2022-08-03T20:51:49.762Z,100190.88
2022-08-03T20:54:28.715Z,100178.31
2022-08-03T20:56:59.518Z,100191.94
2022-08-03T20:59:36.916Z,100202.13
2022-08-03T21:02:19.695Z,100198.81
2022-08-03T21:04:56.445Z,100194.84
2022-08-03T21:07:24.431Z,100204.09
2022-08-03T21:10:15.370Z,100204.91
2022-08-03T21:12:58.868Z,100124.94
2022-08-03T21:13:00.957Z,100148.53
2022-08-03T21:13:09.983Z,100150.25
2022-08-03T21:13:12.580Z,100216.28
2022-08-03T21:16:12.604Z,100206.66
2022-08-03T21:18:36.464Z,100207.47
2022-08-03T21:21:05.431Z,100207.47
2022-08-03T21:23:47.711Z,100184.56
2022-08-03T21:26:21.394Z,100211.22
2022-08-03T21:28:50.077Z,100207.81
2022-08-03T21:31:24.490Z,100203.75
2022-08-03T21:34:03.543Z,100193.44
2022-08-03T21:36:33.734Z,100208.31
2022-08-03T21:39:02.031Z,100209.34
2022-08-03T21:41:32.449Z,100201.84
2022-08-03T21:44:00.214Z,100210.97
2022-08-03T21:46:33.862Z,100207.69
2022-08-03T21:50:04.709Z,100196.16
2022-08-03T21:51:54.123Z,100208.69
2022-08-03T21:54:24.413Z,100201.81
2022-08-03T21:56:51.429Z,100214.84
2022-08-03T21:59:20.630Z,100221.19
2022-08-03T22:01:55.245Z,100223.88
2022-08-03T22:04:55.494Z,100197.94
2022-08-03T22:07:14.280Z,100220.78
2022-08-03T22:09:51.400Z,100220.84
2022-08-03T22:12:24.105Z,100222.94
2022-08-03T22:15:01.242Z,100227.63
2022-08-03T22:17:55.917Z,100217.69
2022-08-03T22:20:24.453Z,100221.50
2022-08-03T22:22:57.016Z,100216.22
2022-08-03T22:25:30.765Z,100218.19
2022-08-03T22:28:00.894Z,100218.63
2022-08-03T22:30:28.339Z,100221.53
2022-08-03T22:32:57.632Z,100219.88
2022-08-03T22:35:27.715Z,100214.03
2022-08-03T22:37:58.562Z,100224.34
2022-08-03T22:40:27.849Z,100233.94
2022-08-03T22:42:55.298Z,100229.34
2022-08-03T22:46:06.877Z,100230.63
2022-08-03T22:48:11.104Z,100233.16
2022-08-03T22:50:39.278Z,100222.88
2022-08-03T22:53:06.978Z,100235.28
2022-08-03T22:55:34.451Z,100228.94
2022-08-03T22:58:01.641Z,100231.28
2022-08-03T23:00:28.737Z,100235.44
2022-08-03T23:03:00.316Z,100243.31
2022-08-03T23:06:02.413Z,100245.84
2022-08-03T23:08:24.202Z,100237.94
2022-08-03T23:10:53.354Z,100244.38
2022-08-03T23:13:25.677Z,100249.97
2022-08-03T23:15:59.182Z,100235.84
2022-08-03T23:18:34.113Z,100250.41
2022-08-03T23:21:11.322Z,100252.28
2022-08-03T23:23:44.415Z,100237.50
2022-08-03T23:26:13.920Z,100230.50
2022-08-03T23:28:45.322Z,100243.09
2022-08-03T23:31:13.918Z,100251.09
2022-08-03T23:33:44.532Z,100258.53
2022-08-03T23:36:30.219Z,100242.56
2022-08-03T23:39:02.298Z,100257.81
2022-08-03T23:41:30.876Z,100249.56
2022-08-03T23:44:00.955Z,100253.75
2022-08-03T23:46:30.481Z,100255.63
2022-08-03T23:49:00.716Z,100271.13
2022-08-03T23:52:08.978Z,100262.69
2022-08-03T23:54:54.803Z,100268.66
2022-08-03T23:57:46.896Z,100267.44
